Jeffris, Wisconsin
Current Conditions -  °F | °C
As of 9:55 PM on Saturday 25 Oct 2014 (Local Time) from KRRL Reporting Station
Clear Clear  
Wind Chill:   Ceiling: Unl
Heat Index:   Visibility: 10mi
Dew Point: -5°   Wind: 6mph
Humidity: 40%   Direction: 310°NW
Pressure: 29.95"   Gusts: NA
Location:  45.3595°N, 89.45°W
Report Text: KRRL 260255Z AUTO 31005KT 10SM CLR 08/M05 A2995 RMK AO2 T00831047
Loading
Personal Weather Stations






























Interactive Weather Map
Tropical Storm Tracking
New forecast layout! Learn more

10-Day Weather Forecast

Advertisements
Track Severe Weather on mobile